Погода Мабешина 2 недели

Вьентьян, Таиланд

02 - 14 марта
  • 02марта
    Сегодня
    +20°
    +35°
    Ясно и безоблачно
    ВремяПогодаТемператураВлажностьДавлениеВетер, м/сВероятность осадков
    01:00Ясно и безоблачно+23°C65 %723 мм0.8 м/с2 %
    04:00Ясно и безоблачно+20°C64 %722 мм0.4 м/с2 %
    07:00Ясно и безоблачно+20°C67 %724 мм0.0 м/с4 %
    10:00Облачно с прояснениями+27°C61 %726 мм1.6 м/с2 %
    13:00Ясно и безоблачно+32°C39 %724 мм2.3 м/с4 %
    16:00Небольшая облачность+34°C31 %722 мм3.0 м/с2 %
    19:00Ясно и безоблачно+29°C52 %721 мм1.4 м/с2 %
    22:00Ясно и безоблачно+27°C62 %723 мм1.7 м/с2 %
  • 03марта
    Воскресенье
    +17°
    +35°
    Ясно и безоблачно
    ВремяПогодаТемператураВлажностьДавлениеВетер, м/сВероятность осадков
    01:00Ясно и безоблачно+24°C71 %723 мм1.0 м/с2 %
    04:00Ясно и безоблачно+22°C86 %723 мм0.4 м/с2 %
    07:00Ясно и безоблачно+21°C95 %724 мм0.0 м/с3 %
    10:00Практически безоблачно+27°C65 %726 мм1.4 м/с2 %
    13:00Ясно и безоблачно+32°C33 %723 мм2.2 м/с6 %
    16:00Ясно и безоблачно+35°C26 %721 мм3.1 м/с2 %
    19:00Ясно и безоблачно+29°C49 %720 мм1.4 м/с2 %
    22:00Ясно и безоблачно+25°C63 %722 мм1.2 м/с2 %
  • 04марта
    Понедельник
    +17°
    +34°
    Ясно и безоблачно
    ВремяПогодаТемператураВлажностьДавлениеВетер, м/сВероятность осадков
    01:00Ясно и безоблачно+22°C59 %721 мм0.7 м/с2 %
    04:00Ясно и безоблачно+19°C64 %721 мм0.3 м/с2 %
    07:00Ясно и безоблачно+18°C69 %722 мм0.1 м/с2 %
    10:00Ясно и безоблачно+25°C44 %724 мм1.2 м/с2 %
    13:00Ясно и безоблачно+31°C20 %722 мм2.1 м/с2 %
    16:00Ясно и безоблачно+34°C21 %720 мм2.6 м/с2 %
    19:00Ясно и безоблачно+28°C46 %720 мм0.9 м/с2 %
    22:00Ясно и безоблачно+24°C55 %721 мм1.1 м/с2 %
  • 05марта
    Вторник
    +17°
    +35°
    Небольшая облачность
    ВремяПогодаТемператураВлажностьДавлениеВетер, м/сВероятность осадков
    01:00Ясно и безоблачно+21°C51 %721 мм0.7 м/с2 %
    04:00Ясно и безоблачно+19°C46 %720 мм0.3 м/с2 %
    07:00Ясно и безоблачно+18°C47 %722 мм0.1 м/с2 %
    10:00Практически безоблачно+25°C37 %724 мм1.1 м/с2 %
    13:00Небольшая облачность+33°C21 %722 мм2.2 м/с2 %
    16:00Практически безоблачно+35°C19 %720 мм2.8 м/с2 %
    19:00Ясно и безоблачно+29°C39 %720 мм0.9 м/с2 %
    22:00Ясно и безоблачно+25°C57 %721 мм1.1 м/с2 %
  • 06марта
    Среда
    +18°
    +37°
    Ясно и безоблачно
    ВремяПогодаТемператураВлажностьДавлениеВетер, м/сВероятность осадков
    01:00Ясно и безоблачно+22°C46 %720 мм0.9 м/с2 %
    04:00Ясно и безоблачно+20°C41 %720 мм0.4 м/с2 %
    07:00Ясно и безоблачно+18°C52 %721 мм0.1 м/с2 %
    10:00Ясно и безоблачно+26°C36 %724 мм1.2 м/с2 %
    13:00Ясно и безоблачно+33°C21 %722 мм1.8 м/с2 %
    16:00Ясно и безоблачно+35°C20 %720 мм2.7 м/с2 %
    19:00Ясно и безоблачно+30°C42 %720 мм0.8 м/с2 %
    22:00Ясно и безоблачно+25°C56 %721 мм0.9 м/с2 %
Мы используем cookies
Соглашаюсь